createdAt,value
2017-10-29T00:00:48.688Z,8.85
2017-10-29T00:03:16.179Z,8.86
2017-10-29T00:05:43.721Z,8.93
2017-10-29T00:08:11.196Z,8.85
2017-10-29T00:10:38.690Z,8.87
2017-10-29T00:13:06.181Z,8.89
2017-10-29T00:15:33.685Z,8.93
2017-10-29T00:18:01.189Z,8.92
2017-10-29T00:20:29.063Z,8.90
2017-10-29T00:22:56.561Z,8.95
2017-10-29T00:25:24.087Z,8.95
2017-10-29T00:27:51.593Z,8.99
2017-10-29T00:30:19.095Z,8.98
2017-10-29T00:32:46.587Z,9.12
2017-10-29T00:35:14.071Z,9.00
2017-10-29T00:37:41.580Z,9.04
2017-10-29T00:40:09.053Z,8.98
2017-10-29T00:42:36.562Z,9.01
2017-10-29T00:45:04.063Z,9.03
2017-10-29T00:47:31.554Z,9.03
2017-10-29T00:49:59.047Z,9.05
2017-10-29T00:52:26.546Z,9.11
2017-10-29T00:54:54.041Z,9.17
2017-10-29T00:57:21.539Z,9.10
2017-10-29T00:59:49.055Z,9.18
2017-10-29T01:02:16.550Z,9.13
2017-10-29T01:04:44.058Z,9.23
2017-10-29T01:07:11.555Z,9.16
2017-10-29T01:09:39.069Z,9.15
2017-10-29T01:12:06.584Z,9.13
2017-10-29T01:14:34.160Z,9.13
2017-10-29T01:17:01.665Z,9.19
2017-10-29T01:19:29.189Z,9.13
2017-10-29T01:21:56.668Z,9.15
2017-10-29T01:24:24.182Z,9.20
2017-10-29T01:26:51.667Z,9.24
2017-10-29T01:29:19.248Z,9.18
2017-10-29T01:31:46.728Z,9.25
2017-10-29T01:34:14.230Z,9.24
2017-10-29T01:36:41.742Z,9.23
2017-10-29T01:39:09.249Z,9.31
2017-10-29T01:41:36.730Z,9.25
2017-10-29T01:44:04.249Z,9.32
2017-10-29T01:46:31.746Z,9.29
2017-10-29T01:48:59.241Z,9.33
2017-10-29T01:51:26.738Z,9.39
2017-10-29T01:53:54.217Z,9.33
2017-10-29T01:56:21.720Z,9.38
2017-10-29T01:58:49.218Z,9.32
2017-10-29T02:01:16.709Z,9.35
2017-10-29T02:03:44.194Z,9.36
2017-10-29T02:06:11.695Z,9.42
2017-10-29T02:08:39.190Z,9.34
2017-10-29T02:11:06.681Z,9.42
2017-10-29T02:13:34.183Z,9.33
2017-10-29T02:16:01.689Z,9.36
2017-10-29T02:18:29.190Z,9.38
2017-10-29T02:20:56.673Z,9.46
2017-10-29T02:23:24.170Z,9.41
2017-10-29T02:25:51.673Z,9.46
2017-10-29T02:28:19.163Z,9.46
2017-10-29T02:30:46.688Z,9.46
2017-10-29T02:33:14.222Z,9.48
2017-10-29T02:35:41.735Z,9.51
2017-10-29T02:38:09.240Z,9.48
2017-10-29T02:40:36.746Z,9.49
2017-10-29T02:43:04.239Z,9.47
2017-10-29T02:45:31.746Z,9.52
2017-10-29T02:47:59.237Z,9.53
2017-10-29T02:50:26.743Z,9.54
2017-10-29T02:52:54.249Z,9.56
2017-10-29T02:55:21.757Z,9.58
2017-10-29T02:57:49.259Z,9.61
2017-10-29T03:00:16.767Z,9.64
2017-10-29T03:02:44.261Z,9.58
2017-10-29T03:05:11.761Z,9.56
2017-10-29T03:07:39.244Z,9.53
2017-10-29T03:10:06.737Z,9.57
2017-10-29T03:12:34.219Z,9.56
2017-10-29T03:15:01.722Z,9.55
2017-10-29T03:17:29.227Z,9.58
2017-10-29T03:19:56.720Z,9.58
2017-10-29T03:22:24.214Z,9.59
2017-10-29T03:24:51.712Z,9.58
2017-10-29T03:27:19.208Z,9.59
2017-10-29T03:29:46.704Z,9.63
2017-10-29T03:32:14.202Z,9.62
2017-10-29T03:34:41.693Z,9.69
2017-10-29T03:37:09.191Z,9.75
2017-10-29T03:39:36.677Z,9.82
2017-10-29T03:42:04.200Z,9.90
2017-10-29T03:44:31.693Z,9.95
2017-10-29T03:46:59.179Z,9.98
2017-10-29T03:49:26.661Z,10.01
2017-10-29T03:51:54.169Z,10.02
2017-10-29T03:54:21.659Z,10.07
2017-10-29T03:56:49.146Z,9.96
2017-10-29T03:59:16.639Z,10.05
2017-10-29T04:01:44.159Z,10.00
2017-10-29T04:04:11.657Z,10.02
2017-10-29T04:06:39.158Z,10.03
2017-10-29T04:09:06.670Z,10.12
2017-10-29T04:11:34.178Z,10.12
2017-10-29T04:14:01.681Z,10.12
2017-10-29T04:16:29.187Z,10.13
2017-10-29T04:18:56.688Z,10.17
2017-10-29T04:21:24.202Z,10.21
2017-10-29T04:23:51.689Z,10.23
2017-10-29T04:26:19.187Z,10.24
2017-10-29T04:28:46.707Z,10.16
2017-10-29T04:31:14.203Z,10.18
2017-10-29T04:33:41.696Z,10.24
2017-10-29T04:36:09.189Z,10.22
2017-10-29T04:38:36.712Z,10.22
2017-10-29T04:41:04.206Z,10.26
2017-10-29T04:43:31.699Z,10.28
2017-10-29T04:45:59.218Z,10.26
2017-10-29T04:48:26.759Z,10.28
2017-10-29T04:50:54.249Z,10.27
2017-10-29T04:53:21.754Z,10.28
2017-10-29T04:55:49.267Z,10.31
2017-10-29T04:58:16.756Z,10.26
2017-10-29T05:00:44.263Z,10.25
2017-10-29T05:03:11.786Z,10.25
2017-10-29T05:05:39.275Z,10.26
2017-10-29T05:08:06.774Z,10.28
2017-10-29T05:10:34.262Z,10.25
2017-10-29T05:13:01.762Z,10.25
2017-10-29T05:15:29.281Z,10.26
2017-10-29T05:17:56.780Z,10.24
2017-10-29T05:20:24.328Z,10.17
2017-10-29T05:22:51.832Z,10.19
2017-10-29T05:25:19.344Z,10.23
2017-10-29T05:27:46.862Z,10.18
2017-10-29T05:30:14.366Z,10.24
2017-10-29T05:32:41.894Z,10.24
2017-10-29T05:35:09.384Z,10.23
2017-10-29T05:37:37.046Z,10.20
2017-10-29T05:40:04.555Z,10.15
2017-10-29T05:42:32.053Z,10.06
2017-10-29T05:44:59.563Z,9.99
2017-10-29T05:47:27.057Z,9.94
2017-10-29T05:49:54.554Z,9.90
2017-10-29T05:52:22.054Z,9.92
2017-10-29T05:54:49.920Z,9.89
2017-10-29T05:57:17.426Z,9.91
2017-10-29T05:59:44.918Z,9.91
2017-10-29T06:02:12.793Z,9.94
2017-10-29T06:04:40.306Z,9.91
2017-10-29T06:07:07.790Z,9.96
2017-10-29T06:09:35.315Z,9.92
2017-10-29T06:12:02.823Z,9.88
2017-10-29T06:14:30.317Z,9.84
2017-10-29T06:16:57.803Z,9.87
2017-10-29T06:19:25.314Z,9.86
2017-10-29T06:21:52.803Z,9.83
2017-10-29T06:24:20.304Z,9.79
2017-10-29T06:26:47.815Z,9.82
2017-10-29T06:29:15.303Z,9.79
2017-10-29T06:31:42.823Z,9.83
2017-10-29T06:34:10.350Z,9.79
2017-10-29T06:36:37.845Z,9.64
2017-10-29T06:39:05.335Z,9.59
2017-10-29T06:41:32.819Z,9.45
2017-10-29T06:44:00.331Z,9.36
2017-10-29T06:46:27.842Z,9.29
2017-10-29T06:48:55.350Z,9.33
2017-10-29T06:51:22.843Z,9.33
2017-10-29T06:53:50.346Z,9.38
2017-10-29T06:56:17.830Z,9.34
2017-10-29T06:58:45.331Z,9.40
2017-10-29T07:01:12.819Z,9.42
2017-10-29T07:03:40.298Z,9.38
2017-10-29T07:06:07.789Z,9.43
2017-10-29T07:08:35.316Z,9.50
2017-10-29T07:11:02.883Z,9.57
2017-10-29T07:13:30.393Z,9.64
2017-10-29T07:15:57.869Z,9.63
2017-10-29T07:18:25.358Z,9.72
2017-10-29T07:20:52.856Z,9.70
2017-10-29T07:23:20.353Z,9.71
2017-10-29T07:25:47.899Z,9.75
2017-10-29T07:28:15.402Z,9.73
2017-10-29T07:30:42.902Z,9.76
2017-10-29T07:33:10.414Z,9.70
2017-10-29T07:35:37.890Z,9.70
2017-10-29T07:38:05.386Z,9.70
2017-10-29T07:40:32.923Z,9.69
2017-10-29T07:43:00.424Z,9.67
2017-10-29T07:45:27.931Z,9.70
2017-10-29T07:47:55.442Z,9.77
2017-10-29T07:50:22.940Z,9.74
2017-10-29T07:52:50.426Z,9.76
2017-10-29T07:55:17.950Z,9.83
2017-10-29T07:57:45.442Z,9.92
2017-10-29T08:00:12.933Z,9.81
2017-10-29T08:02:40.437Z,9.87
2017-10-29T08:05:07.943Z,9.96
2017-10-29T08:07:35.929Z,9.97
2017-10-29T08:10:03.428Z,10.01
2017-10-29T08:12:30.918Z,10.03
2017-10-29T08:14:58.443Z,9.99
2017-10-29T08:17:25.938Z,10.05
2017-10-29T08:19:53.438Z,10.05
2017-10-29T08:22:20.928Z,10.07
2017-10-29T08:24:48.454Z,10.13
2017-10-29T08:27:15.962Z,10.14
2017-10-29T08:29:43.454Z,10.14
2017-10-29T08:32:10.961Z,10.20
2017-10-29T08:34:38.478Z,10.21
2017-10-29T08:37:05.987Z,10.31
2017-10-29T08:39:33.498Z,10.20
2017-10-29T08:42:01.009Z,10.40
2017-10-29T08:44:28.528Z,10.30
2017-10-29T08:46:56.905Z,10.34
2017-10-29T08:49:24.433Z,10.48
2017-10-29T08:51:51.941Z,10.43
2017-10-29T08:54:19.440Z,10.60
2017-10-29T08:56:46.949Z,10.64
2017-10-29T08:59:14.455Z,10.62
2017-10-29T09:01:41.985Z,10.68
2017-10-29T09:04:09.477Z,10.64
2017-10-29T09:06:36.999Z,10.63
2017-10-29T09:09:04.498Z,10.65
2017-10-29T09:11:32.039Z,10.65
2017-10-29T09:13:59.610Z,10.65
2017-10-29T09:16:27.152Z,10.58
2017-10-29T09:18:54.643Z,10.58
2017-10-29T09:21:22.147Z,10.56
2017-10-29T09:23:49.637Z,10.60
2017-10-29T09:26:17.135Z,10.60
2017-10-29T09:28:44.663Z,10.72
2017-10-29T09:31:12.172Z,10.67
2017-10-29T09:33:39.704Z,10.61
2017-10-29T09:36:07.205Z,10.62
2017-10-29T09:38:34.734Z,10.81
2017-10-29T09:41:02.243Z,10.81
2017-10-29T09:43:29.790Z,10.72
2017-10-29T09:45:57.310Z,10.80
2017-10-29T09:48:24.830Z,10.80
2017-10-29T09:50:53.081Z,11.07
2017-10-29T09:53:20.602Z,11.19
2017-10-29T09:55:48.110Z,11.25
2017-10-29T09:58:15.636Z,11.22
2017-10-29T10:00:43.214Z,11.32
2017-10-29T10:03:10.834Z,11.41
2017-10-29T10:05:38.341Z,11.41
2017-10-29T10:08:05.875Z,11.52
2017-10-29T10:10:33.406Z,11.47
2017-10-29T10:13:00.899Z,11.32
2017-10-29T10:15:28.413Z,11.17
2017-10-29T10:17:55.947Z,11.15
2017-10-29T10:20:23.451Z,11.05
2017-10-29T10:22:50.974Z,10.88
2017-10-29T10:25:18.476Z,10.49
2017-10-29T10:27:46.010Z,10.06
2017-10-29T10:30:13.524Z,9.89
2017-10-29T10:32:41.023Z,9.65
2017-10-29T10:35:08.537Z,9.62
2017-10-29T10:37:36.051Z,9.64
2017-10-29T10:40:03.595Z,9.71
2017-10-29T10:42:31.082Z,9.83
2017-10-29T10:44:58.603Z,9.86
2017-10-29T10:47:26.433Z,9.87
2017-10-29T10:49:53.955Z,10.00
2017-10-29T10:52:21.450Z,9.86
2017-10-29T10:54:48.980Z,9.95
2017-10-29T10:57:16.478Z,9.99
2017-10-29T10:59:44.018Z,10.08
2017-10-29T11:02:11.529Z,9.96
2017-10-29T11:04:41.911Z,10.02
2017-10-29T11:07:09.405Z,10.10
2017-10-29T11:09:36.917Z,10.15
2017-10-29T11:12:04.431Z,10.14
2017-10-29T11:14:31.942Z,10.27
2017-10-29T11:16:59.944Z,10.28
2017-10-29T11:19:27.467Z,10.48
2017-10-29T11:21:55.008Z,10.62
2017-10-29T11:24:22.505Z,10.52
2017-10-29T11:26:50.247Z,10.58
2017-10-29T11:29:17.780Z,10.73
2017-10-29T11:31:45.329Z,10.79
2017-10-29T11:34:12.895Z,10.88
2017-10-29T11:36:40.453Z,10.99
2017-10-29T11:39:07.980Z,11.44
2017-10-29T11:41:35.553Z,11.65
2017-10-29T11:44:03.106Z,11.95
2017-10-29T11:46:30.610Z,12.06
2017-10-29T11:48:58.163Z,12.88
2017-10-29T11:51:25.819Z,13.26
2017-10-29T11:53:53.340Z,14.16
2017-10-29T11:56:20.909Z,13.76
2017-10-29T11:58:48.458Z,12.72
2017-10-29T12:01:15.989Z,12.12
2017-10-29T12:03:43.478Z,11.57
2017-10-29T12:06:11.004Z,11.64
2017-10-29T12:08:38.548Z,11.59
2017-10-29T12:11:06.054Z,11.05
2017-10-29T12:13:33.554Z,11.22
2017-10-29T12:16:01.085Z,10.98
2017-10-29T12:18:28.590Z,11.23
2017-10-29T12:20:56.106Z,11.23
2017-10-29T12:23:23.626Z,12.33
2017-10-29T12:25:51.155Z,14.71
2017-10-29T12:28:18.685Z,13.81
2017-10-29T12:30:46.212Z,13.05
2017-10-29T12:33:13.714Z,12.45
2017-10-29T12:35:41.229Z,12.31
2017-10-29T12:38:08.734Z,11.97
2017-10-29T12:40:36.473Z,11.57
2017-10-29T12:43:03.979Z,11.34
2017-10-29T12:45:31.493Z,11.32
2017-10-29T12:47:59.010Z,11.12
2017-10-29T12:50:26.527Z,10.97
2017-10-29T12:52:54.152Z,10.89
2017-10-29T12:55:21.666Z,10.81
2017-10-29T12:57:49.196Z,10.98
2017-10-29T13:00:16.714Z,11.16
2017-10-29T13:02:44.245Z,11.48
2017-10-29T13:05:11.753Z,11.43
2017-10-29T13:07:39.246Z,11.40
2017-10-29T13:10:06.754Z,11.48
2017-10-29T13:12:34.288Z,11.36
2017-10-29T13:15:01.793Z,11.43
2017-10-29T13:17:29.457Z,11.44
2017-10-29T13:19:57.007Z,11.57
2017-10-29T13:22:24.503Z,12.08
2017-10-29T13:24:52.022Z,12.65
2017-10-29T13:27:19.578Z,12.43
2017-10-29T13:29:47.198Z,12.48
2017-10-29T13:34:41.552Z,12.88
2017-10-29T13:37:09.054Z,13.61
2017-10-29T13:39:36.588Z,14.94
2017-10-29T13:42:04.107Z,16.69
2017-10-29T13:44:31.641Z,14.65
2017-10-29T13:46:59.156Z,15.15
2017-10-29T13:49:26.696Z,15.47
2017-10-29T13:51:54.227Z,16.41
2017-10-29T13:54:21.746Z,17.49
2017-10-29T13:56:49.260Z,17.53
2017-10-29T13:59:16.762Z,17.94
2017-10-29T14:01:44.280Z,18.56
2017-10-29T14:04:11.783Z,18.16
2017-10-29T14:06:39.318Z,18.23
2017-10-29T14:09:06.838Z,18.85
2017-10-29T14:11:34.380Z,17.10
2017-10-29T14:14:01.911Z,16.95
2017-10-29T14:16:29.404Z,16.81
2017-10-29T14:18:56.904Z,16.65
2017-10-29T14:21:24.402Z,16.42
2017-10-29T14:23:51.929Z,15.67
2017-10-29T14:26:19.463Z,15.32
2017-10-29T14:28:46.990Z,16.08
2017-10-29T14:31:14.505Z,15.58
2017-10-29T14:33:42.037Z,14.77
2017-10-29T14:36:09.567Z,14.77
2017-10-29T14:38:37.112Z,14.44
2017-10-29T14:41:04.631Z,13.90
2017-10-29T14:43:32.155Z,13.72
2017-10-29T14:45:59.671Z,13.49
2017-10-29T14:48:27.235Z,13.94
2017-10-29T14:50:54.766Z,13.19
2017-10-29T14:53:22.294Z,12.88
2017-10-29T14:55:49.805Z,12.44
2017-10-29T14:58:17.424Z,11.96
2017-10-29T15:00:45.083Z,11.45
2017-10-29T15:03:12.578Z,11.41
2017-10-29T15:05:40.130Z,11.44
2017-10-29T15:08:07.656Z,11.18
2017-10-29T15:10:35.171Z,10.78
2017-10-29T15:13:02.690Z,11.03
2017-10-29T15:15:30.209Z,10.62
2017-10-29T15:17:57.704Z,10.53
2017-10-29T15:20:25.219Z,10.37
2017-10-29T15:22:52.723Z,10.36
2017-10-29T15:25:20.257Z,10.15
2017-10-29T15:27:47.760Z,10.01
2017-10-29T15:30:15.262Z,10.00
2017-10-29T15:32:42.782Z,9.97
2017-10-29T15:35:10.326Z,9.94
2017-10-29T15:37:37.825Z,9.72
2017-10-29T15:40:05.328Z,9.74
2017-10-29T15:42:32.827Z,9.10
2017-10-29T15:45:00.342Z,9.06
2017-10-29T15:47:27.850Z,8.87
2017-10-29T15:49:55.358Z,8.95
2017-10-29T15:52:22.896Z,8.68
2017-10-29T15:54:50.451Z,8.14
2017-10-29T15:57:17.964Z,7.79
2017-10-29T15:59:45.649Z,7.33
2017-10-29T16:02:13.158Z,7.04
2017-10-29T16:04:40.653Z,7.07
2017-10-29T16:07:08.151Z,6.94
2017-10-29T16:09:35.664Z,6.70
2017-10-29T16:12:03.174Z,6.51
2017-10-29T16:14:30.683Z,6.52
2017-10-29T16:16:58.206Z,6.50
2017-10-29T16:19:25.718Z,6.58
2017-10-29T16:21:53.220Z,6.54
2017-10-29T16:24:20.732Z,6.48
2017-10-29T16:26:48.233Z,6.19
2017-10-29T16:29:15.742Z,6.26
2017-10-29T16:31:43.279Z,6.35
2017-10-29T16:34:10.802Z,6.18
2017-10-29T16:36:38.314Z,6.22
2017-10-29T16:39:05.818Z,6.13
2017-10-29T16:41:33.337Z,6.13
2017-10-29T16:44:00.843Z,6.17
2017-10-29T16:46:28.357Z,6.20
2017-10-29T16:48:55.987Z,6.37
2017-10-29T16:51:23.510Z,6.13
2017-10-29T16:53:50.996Z,6.02
2017-10-29T16:56:18.519Z,5.89
2017-10-29T16:58:46.063Z,5.97
2017-10-29T17:01:13.569Z,6.09
2017-10-29T17:03:41.083Z,6.04
2017-10-29T17:06:08.602Z,6.15
2017-10-29T17:08:36.105Z,6.07
2017-10-29T17:11:03.693Z,5.89
2017-10-29T17:13:31.239Z,5.83
2017-10-29T17:15:58.781Z,5.73
2017-10-29T17:18:26.300Z,5.24
2017-10-29T17:20:53.809Z,5.03
2017-10-29T17:23:21.330Z,4.84
2017-10-29T17:25:48.835Z,4.81
2017-10-29T17:28:16.354Z,4.74
2017-10-29T17:30:43.895Z,4.55
2017-10-29T17:33:11.415Z,4.59
2017-10-29T17:35:38.922Z,4.63
2017-10-29T17:38:06.473Z,4.56
2017-10-29T17:40:33.963Z,4.72
2017-10-29T17:43:01.472Z,4.64
2017-10-29T17:45:28.994Z,4.74
2017-10-29T17:47:56.505Z,4.87
2017-10-29T17:50:24.041Z,4.73
2017-10-29T17:52:51.556Z,4.65
2017-10-29T17:55:19.083Z,4.51
2017-10-29T17:57:47.566Z,4.46
2017-10-29T18:00:15.063Z,4.50
2017-10-29T18:02:42.570Z,4.77
2017-10-29T18:05:10.071Z,4.60
2017-10-29T18:07:37.647Z,4.67
2017-10-29T18:10:05.268Z,4.88
2017-10-29T18:12:32.766Z,4.79
2017-10-29T18:15:00.311Z,4.55
2017-10-29T18:17:27.807Z,4.31
2017-10-29T18:19:55.309Z,4.18
2017-10-29T18:22:23.196Z,4.23
2017-10-29T18:24:50.701Z,4.20
2017-10-29T18:27:18.194Z,4.25
2017-10-29T18:29:45.696Z,4.33
2017-10-29T18:32:13.204Z,4.41
2017-10-29T18:34:40.690Z,4.17
2017-10-29T18:37:08.189Z,4.45
2017-10-29T18:39:35.691Z,4.68
2017-10-29T18:42:03.329Z,4.97
2017-10-29T18:44:30.886Z,5.13
2017-10-29T18:46:58.410Z,5.42
2017-10-29T18:49:25.910Z,5.47
2017-10-29T18:51:53.408Z,5.51
2017-10-29T18:54:20.955Z,5.63
2017-10-29T18:56:48.547Z,5.87
2017-10-29T18:59:16.235Z,5.79
2017-10-29T19:01:43.907Z,5.50
2017-10-29T19:04:11.445Z,5.50
2017-10-29T19:06:38.978Z,5.19
2017-10-29T19:09:06.563Z,5.08
2017-10-29T19:11:34.085Z,4.97
2017-10-29T19:14:01.648Z,4.67
2017-10-29T19:16:29.174Z,4.26
2017-10-29T19:18:56.721Z,4.23
2017-10-29T19:21:24.290Z,4.17
2017-10-29T19:23:51.852Z,4.44
2017-10-29T19:26:19.464Z,4.64
2017-10-29T19:28:47.054Z,4.75
2017-10-29T19:31:14.604Z,5.22
2017-10-29T19:33:42.291Z,5.17
2017-10-29T19:36:09.848Z,5.22
2017-10-29T19:38:37.409Z,5.03
2017-10-29T19:41:05.055Z,4.97
2017-10-29T19:43:32.606Z,4.82
2017-10-29T19:46:00.125Z,5.09
2017-10-29T19:48:27.723Z,5.05
2017-10-29T19:50:55.255Z,4.85
2017-10-29T19:53:22.794Z,4.95
2017-10-29T19:55:50.304Z,4.90
2017-10-29T19:58:17.861Z,4.83
2017-10-29T20:00:45.391Z,4.72
2017-10-29T20:03:12.906Z,4.64
2017-10-29T20:05:40.462Z,4.32
2017-10-29T20:08:07.986Z,4.12
2017-10-29T20:10:35.554Z,4.18
2017-10-29T20:13:03.143Z,4.20
2017-10-29T20:15:30.687Z,4.25
2017-10-29T20:17:58.344Z,4.32
2017-10-29T20:20:25.910Z,4.30
2017-10-29T20:22:53.421Z,4.26
2017-10-29T20:25:20.927Z,4.34
2017-10-29T20:27:48.462Z,4.34
2017-10-29T20:30:16.014Z,4.38
2017-10-29T20:32:43.528Z,4.54
2017-10-29T20:35:11.062Z,4.48
2017-10-29T20:37:38.780Z,4.54
2017-10-29T20:40:06.306Z,4.49
2017-10-29T20:42:33.825Z,4.59
2017-10-29T20:45:01.424Z,4.51
2017-10-29T20:47:28.930Z,4.30
2017-10-29T20:49:56.467Z,4.16
2017-10-29T20:52:23.972Z,4.08
2017-10-29T20:54:51.476Z,4.13
2017-10-29T20:57:19.004Z,4.29
2017-10-29T20:59:46.522Z,4.31
2017-10-29T21:02:14.028Z,4.29
2017-10-29T21:04:41.563Z,4.37
2017-10-29T21:07:09.212Z,4.45
2017-10-29T21:09:36.738Z,4.14
2017-10-29T21:12:04.273Z,3.86
2017-10-29T21:14:31.769Z,3.67
2017-10-29T21:16:59.279Z,3.53
2017-10-29T21:19:26.889Z,3.27
2017-10-29T21:21:54.392Z,3.20
2017-10-29T21:24:21.894Z,3.51
2017-10-29T21:26:49.398Z,3.41
2017-10-29T21:29:16.927Z,3.11
2017-10-29T21:31:44.447Z,2.78
2017-10-29T21:34:11.956Z,2.75
2017-10-29T21:36:39.469Z,2.84
2017-10-29T21:39:06.990Z,2.50
2017-10-29T21:41:34.521Z,2.46
2017-10-29T21:44:02.041Z,2.67
2017-10-29T21:46:29.550Z,2.58
2017-10-29T21:48:57.052Z,2.71
2017-10-29T21:51:24.559Z,2.65
2017-10-29T21:53:52.141Z,2.47
2017-10-29T21:56:19.656Z,2.49
2017-10-29T21:58:47.148Z,2.49
2017-10-29T22:01:14.645Z,2.25
2017-10-29T22:03:42.167Z,2.08
2017-10-29T22:06:09.673Z,2.09
2017-10-29T22:08:37.194Z,2.05
2017-10-29T22:11:04.718Z,2.21
2017-10-29T22:13:32.221Z,2.21
2017-10-29T22:15:59.824Z,2.19
2017-10-29T22:18:27.327Z,2.16
2017-10-29T22:20:54.871Z,2.22
2017-10-29T22:23:22.407Z,2.04
2017-10-29T22:25:49.948Z,1.93
2017-10-29T22:28:17.461Z,1.75
2017-10-29T22:30:44.956Z,1.63
2017-10-29T22:33:12.462Z,1.64
2017-10-29T22:35:39.964Z,1.51
2017-10-29T22:38:07.486Z,1.50
2017-10-29T22:40:34.970Z,1.70
2017-10-29T22:43:02.463Z,1.64
2017-10-29T22:45:29.983Z,1.79
2017-10-29T22:47:57.575Z,1.78
2017-10-29T22:50:25.072Z,1.88
2017-10-29T22:52:52.591Z,1.73
2017-10-29T22:55:20.111Z,1.83
2017-10-29T22:57:47.630Z,1.76
2017-10-29T23:00:15.264Z,1.81
2017-10-29T23:02:42.790Z,1.74
2017-10-29T23:05:10.291Z,1.81
2017-10-29T23:07:40.352Z,2.04
2017-10-29T23:10:07.857Z,2.04
2017-10-29T23:12:35.355Z,1.63
2017-10-29T23:15:02.901Z,1.51
2017-10-29T23:17:30.395Z,1.56
2017-10-29T23:19:57.906Z,1.65
2017-10-29T23:22:25.396Z,1.54
2017-10-29T23:24:52.889Z,1.48
2017-10-29T23:27:20.374Z,1.31
2017-10-29T23:29:47.865Z,1.48
2017-10-29T23:32:15.379Z,1.36
2017-10-29T23:34:42.882Z,1.31
2017-10-29T23:37:10.387Z,1.33
2017-10-29T23:39:37.949Z,1.13
2017-10-29T23:42:05.469Z,1.06
2017-10-29T23:44:32.968Z,0.91
2017-10-29T23:47:00.492Z,0.88
2017-10-29T23:49:27.991Z,0.92
2017-10-29T23:51:55.481Z,0.90
2017-10-29T23:54:22.976Z,1.11
2017-10-29T23:56:50.475Z,1.07
2017-10-29T23:59:17.975Z,0.94
